Bedford, New Hampshire
Current Conditions -  °F | °C
As of 11:01 PM on Thursday 27 Nov 2014 (Local Time) from KMHT Reporting Station
Light Snow Light Snow  
Wind Chill: 22°   Ceiling: 1600
Heat Index: 28°   Visibility: 1.7mi
Dew Point: 24°   Wind: 6mph
Humidity: 85%   Direction: 340°NNW
Pressure: 30"   Gusts: NA
Location:  42.96°N, 71.49°W
Report Text: KMHT 280401Z 34005KT 1 3/4SM -SN BR BKN016 OVC026 M02/M04 A3000 RMK AO2 P0000 T10221044
Loading
Personal Weather Stations






























Interactive Weather Map New forecast layout! Learn more

10-Day Weather Forecast

Advertisements
Track Severe Weather on mobile